createdAt,value
2022-09-21T00:01:05.033Z,77.66
2022-09-21T00:03:32.721Z,82.05
2022-09-21T00:06:06.540Z,77.69
2022-09-21T00:08:34.385Z,78.79
2022-09-21T00:11:01.936Z,77.90
2022-09-21T00:13:29.343Z,75.17
2022-09-21T00:15:56.976Z,77.46
2022-09-21T00:18:24.352Z,79.47
2022-09-21T00:20:52.756Z,78.72
2022-09-21T00:23:20.428Z,75.37
2022-09-21T00:25:47.793Z,78.67
2022-09-21T00:28:15.145Z,77.30
2022-09-21T00:30:42.733Z,79.89
2022-09-21T00:33:10.094Z,80.85
2022-09-21T00:35:38.156Z,80.36
2022-09-21T00:38:06.173Z,81.38
2022-09-21T00:40:33.603Z,78.64
2022-09-21T00:43:16.582Z,79.81
2022-09-21T00:45:44.782Z,77.92
2022-09-21T00:48:12.149Z,77.73
2022-09-21T00:50:41.482Z,79.91
2022-09-21T00:53:09.111Z,79.46
2022-09-21T00:55:49.238Z,77.09
2022-09-21T00:58:19.377Z,81.88
2022-09-21T01:00:46.732Z,79.97
2022-09-21T01:03:14.101Z,80.71
2022-09-21T01:05:41.705Z,77.69
2022-09-21T01:08:10.075Z,80.21
2022-09-21T01:10:46.848Z,79.33
2022-09-21T01:13:26.577Z,81.86
2022-09-21T01:16:16.009Z,81.84
2022-09-21T01:18:51.713Z,79.17
2022-09-21T01:21:23.236Z,80.87
2022-09-21T01:24:02.846Z,81.38
2022-09-21T01:26:38.040Z,81.56
2022-09-21T01:29:23.478Z,80.70
2022-09-21T01:32:00.769Z,79.05
2022-09-21T01:34:36.551Z,78.29
2022-09-21T01:37:07.206Z,80.37
2022-09-21T01:39:35.031Z,81.99
2022-09-21T01:42:03.699Z,80.75
2022-09-21T01:44:33.451Z,79.29
2022-09-21T01:47:02.055Z,77.38
2022-09-21T01:49:36.349Z,78.96
2022-09-21T01:52:16.892Z,79.74
2022-09-21T01:54:47.928Z,78.97
2022-09-21T01:57:23.320Z,78.95
2022-09-21T01:59:55.746Z,80.79
2022-09-21T02:02:43.092Z,79.35
2022-09-21T02:05:10.877Z,78.14
2022-09-21T02:07:39.406Z,79.98
2022-09-21T02:10:07.951Z,78.11
2022-09-21T02:12:35.569Z,77.73
2022-09-21T02:15:03.040Z,76.82
2022-09-21T02:17:36.219Z,75.98
2022-09-21T02:20:09.804Z,75.93
2022-09-21T02:23:06.567Z,75.82
2022-09-21T02:25:45.797Z,77.48
2022-09-21T02:28:32.685Z,78.68
2022-09-21T02:31:18.897Z,75.41
2022-09-21T02:33:59.338Z,75.90
2022-09-21T02:36:35.639Z,74.87
2022-09-21T02:39:20.878Z,74.30
2022-09-21T02:42:08.640Z,73.11
2022-09-21T02:44:40.533Z,76.80
2022-09-21T02:47:13.123Z,73.56
2022-09-21T02:49:51.888Z,76.46
2022-09-21T02:52:19.996Z,75.88
2022-09-21T02:54:50.073Z,77.80
2022-09-21T02:57:18.368Z,76.51
2022-09-21T02:59:46.007Z,74.69
2022-09-21T03:02:13.384Z,79.06
2022-09-21T03:04:43.818Z,77.57
2022-09-21T03:07:11.397Z,76.99
2022-09-21T03:09:38.789Z,73.84
2022-09-21T03:12:06.154Z,73.02
2022-09-21T03:14:33.736Z,71.57
2022-09-21T03:17:01.077Z,73.31
2022-09-21T03:19:29.298Z,72.97
2022-09-21T03:21:56.930Z,71.51
2022-09-21T03:24:43.017Z,75.60
2022-09-21T03:27:10.473Z,74.01
2022-09-21T03:29:37.747Z,72.58
2022-09-21T03:32:05.243Z,73.22
2022-09-21T03:34:34.334Z,75.05
2022-09-21T03:37:02.531Z,76.31
2022-09-21T03:39:29.889Z,77.20
2022-09-21T03:41:57.661Z,78.55
2022-09-21T03:44:25.559Z,75.99
2022-09-21T03:46:53.061Z,72.82
2022-09-21T03:49:20.722Z,74.02
2022-09-21T03:51:48.059Z,74.52
2022-09-21T03:54:15.603Z,77.10
2022-09-21T03:56:43.245Z,76.44
2022-09-21T03:59:13.947Z,79.95
2022-09-21T04:01:42.453Z,76.63
2022-09-21T04:04:10.384Z,74.26
2022-09-21T04:06:37.733Z,74.66
2022-09-21T04:09:05.127Z,75.06
2022-09-21T04:11:33.469Z,75.38
2022-09-21T04:14:02.370Z,75.62
2022-09-21T04:16:29.710Z,75.00
2022-09-21T04:18:57.361Z,79.07
2022-09-21T04:21:24.717Z,81.58
2022-09-21T04:23:52.112Z,77.90
2022-09-21T04:26:26.702Z,76.83
2022-09-21T04:28:54.109Z,79.19
2022-09-21T04:31:22.435Z,75.61
2022-09-21T04:33:53.527Z,74.95
2022-09-21T04:36:21.688Z,74.08
2022-09-21T04:38:49.404Z,75.58
2022-09-21T04:41:16.867Z,75.20
2022-09-21T04:43:45.096Z,74.60
2022-09-21T04:46:14.352Z,78.50
2022-09-21T04:48:41.865Z,78.96
2022-09-21T04:51:09.672Z,77.98
2022-09-21T04:53:38.313Z,76.53
2022-09-21T04:56:06.043Z,75.65
2022-09-21T04:58:33.464Z,75.86
2022-09-21T05:01:01.784Z,76.84
2022-09-21T05:03:29.160Z,76.46
2022-09-21T05:05:56.914Z,76.94
2022-09-21T05:08:44.005Z,77.02
2022-09-21T05:11:15.994Z,78.83
2022-09-21T05:13:43.608Z,78.50
2022-09-21T05:16:11.068Z,74.77
2022-09-21T05:18:38.484Z,73.45
2022-09-21T05:21:07.347Z,73.29
2022-09-21T05:23:34.681Z,72.53
2022-09-21T05:26:02.129Z,73.74
2022-09-21T05:28:30.180Z,73.84
2022-09-21T05:31:18.473Z,72.28
2022-09-21T05:33:57.361Z,75.01
2022-09-21T05:36:46.442Z,73.36
2022-09-21T05:39:14.417Z,72.47
2022-09-21T05:41:42.009Z,70.87
2022-09-21T05:44:14.606Z,71.36
2022-09-21T05:46:56.357Z,70.86
2022-09-21T05:49:36.389Z,69.48
2022-09-21T05:52:22.813Z,70.50
2022-09-21T05:54:52.492Z,69.55
2022-09-21T05:57:35.823Z,70.07
2022-09-21T06:00:13.242Z,71.16
2022-09-21T06:02:46.808Z,69.98
2022-09-21T06:05:14.718Z,70.99
2022-09-21T06:07:42.356Z,68.95
2022-09-21T06:10:10.549Z,67.66
2022-09-21T06:12:37.928Z,67.12
2022-09-21T06:15:06.873Z,66.39
2022-09-21T06:17:34.695Z,65.79
2022-09-21T06:20:03.202Z,66.26
2022-09-21T06:22:30.814Z,66.03
2022-09-21T06:24:58.141Z,67.77
2022-09-21T06:27:25.504Z,67.16
2022-09-21T06:29:53.220Z,66.26
2022-09-21T06:32:20.917Z,66.28
2022-09-21T06:34:49.881Z,66.39
2022-09-21T06:37:17.556Z,67.59
2022-09-21T06:39:44.890Z,68.31
2022-09-21T06:42:12.279Z,68.47
2022-09-21T06:44:40.555Z,69.84
2022-09-21T06:47:07.943Z,72.58
2022-09-21T06:49:37.207Z,71.25
2022-09-21T06:52:08.122Z,70.64
2022-09-21T06:54:35.470Z,69.55
2022-09-21T06:57:03.170Z,68.60
2022-09-21T06:59:31.056Z,68.52
2022-09-21T07:01:58.678Z,69.52
2022-09-21T07:04:26.473Z,69.24
2022-09-21T07:06:54.275Z,69.96
2022-09-21T07:12:09.781Z,70.17
2022-09-21T07:14:37.101Z,68.88
2022-09-21T07:17:04.701Z,68.02
2022-09-21T07:19:32.352Z,67.31
2022-09-21T07:21:59.812Z,68.50
2022-09-21T07:24:27.149Z,68.47
2022-09-21T07:26:54.810Z,66.94
2022-09-21T07:29:22.177Z,67.02
2022-09-21T07:31:49.547Z,67.79
2022-09-21T07:34:17.184Z,67.79
2022-09-21T07:36:44.555Z,67.78
2022-09-21T07:39:12.425Z,67.14
2022-09-21T07:41:40.053Z,67.46
2022-09-21T07:44:07.793Z,66.06
2022-09-21T07:46:41.228Z,67.00
2022-09-21T07:49:12.463Z,66.25
2022-09-21T07:51:39.819Z,67.47
2022-09-21T07:54:09.786Z,66.66
2022-09-21T07:56:37.438Z,66.32
2022-09-21T07:59:08.151Z,65.86
2022-09-21T08:01:39.779Z,65.72
2022-09-21T08:04:09.083Z,65.69
2022-09-21T08:06:40.161Z,65.98
2022-09-21T08:09:08.753Z,63.82
2022-09-21T08:11:37.476Z,65.27
2022-09-21T08:14:05.228Z,63.85
2022-09-21T08:16:33.919Z,62.68
2022-09-21T08:19:02.269Z,62.53
2022-09-21T08:21:29.879Z,63.10
2022-09-21T08:23:57.829Z,63.29
2022-09-21T08:26:25.211Z,62.39
2022-09-21T08:28:53.012Z,63.80
2022-09-21T08:31:21.862Z,62.93
2022-09-21T08:33:49.919Z,62.18
2022-09-21T08:36:18.285Z,62.52
2022-09-21T08:38:45.946Z,61.94
2022-09-21T08:41:36.028Z,62.29
2022-09-21T08:44:12.136Z,62.04
2022-09-21T08:46:39.825Z,60.80
2022-09-21T08:49:16.447Z,60.24
2022-09-21T08:51:51.925Z,60.95
2022-09-21T08:54:25.179Z,60.10
2022-09-21T08:57:04.865Z,60.33
2022-09-21T08:59:34.381Z,61.81
2022-09-21T09:02:13.740Z,61.21
2022-09-21T09:04:41.523Z,61.50
2022-09-21T09:07:17.857Z,59.94
2022-09-21T09:10:03.553Z,58.29
2022-09-21T09:12:39.754Z,61.41
2022-09-21T09:15:14.434Z,62.04
2022-09-21T09:17:53.713Z,61.29
2022-09-21T09:20:25.091Z,61.77
2022-09-21T09:23:12.617Z,60.76
2022-09-21T09:25:42.031Z,61.29
2022-09-21T09:28:28.489Z,60.21
2022-09-21T09:31:11.260Z,60.07
2022-09-21T09:34:24.949Z,57.87
2022-09-21T09:36:59.165Z,59.10
2022-09-21T09:39:28.614Z,59.31
2022-09-21T09:42:04.129Z,58.52
2022-09-21T09:44:38.907Z,58.92
2022-09-21T09:47:19.016Z,60.41
2022-09-21T09:50:08.401Z,58.88
2022-09-21T09:52:36.087Z,59.40
2022-09-21T09:55:20.623Z,60.80
2022-09-21T09:57:51.810Z,60.99
2022-09-21T10:00:19.906Z,58.87
2022-09-21T10:02:51.770Z,57.52
2022-09-21T10:05:23.978Z,57.90
2022-09-21T10:07:51.969Z,57.81
2022-09-21T10:10:38.170Z,56.96
2022-09-21T10:13:20.095Z,57.58
2022-09-21T10:15:54.754Z,57.02
2022-09-21T10:18:30.255Z,56.16
2022-09-21T10:21:07.537Z,55.48
2022-09-21T10:23:35.894Z,55.33
2022-09-21T10:26:11.255Z,53.79
2022-09-21T10:28:55.295Z,53.62
2022-09-21T10:31:24.116Z,54.94
2022-09-21T10:34:06.538Z,55.02
2022-09-21T10:36:35.394Z,51.88
2022-09-21T10:39:21.444Z,50.96
2022-09-21T10:42:05.347Z,53.08
2022-09-21T10:44:43.132Z,52.00
2022-09-21T10:47:28.465Z,51.71
2022-09-21T10:49:57.308Z,51.54
2022-09-21T10:52:26.045Z,51.05
2022-09-21T10:54:55.123Z,51.13
2022-09-21T10:57:24.034Z,54.65
2022-09-21T10:59:52.469Z,52.51
2022-09-21T11:02:36.158Z,51.74
2022-09-21T11:05:11.256Z,50.07
2022-09-21T11:07:57.535Z,48.12
2022-09-21T11:10:44.535Z,50.75
2022-09-21T11:13:23.478Z,51.30
2022-09-21T11:16:01.894Z,51.16
2022-09-21T11:18:45.410Z,51.97
2022-09-21T11:21:20.125Z,51.75
2022-09-21T11:24:21.391Z,50.03
2022-09-21T11:26:59.280Z,48.40
2022-09-21T11:29:42.749Z,48.15
2022-09-21T11:32:16.757Z,49.22
2022-09-21T11:34:57.374Z,49.25
2022-09-21T11:37:55.837Z,48.22
2022-09-21T11:40:32.408Z,46.47
2022-09-21T11:43:02.801Z,46.05
2022-09-21T11:46:01.429Z,47.36
2022-09-21T11:48:32.859Z,47.13
2022-09-21T11:51:00.066Z,46.95
2022-09-21T11:54:20.517Z,48.03
2022-09-21T11:56:58.523Z,49.19
2022-09-21T11:59:35.125Z,49.60
2022-09-21T12:02:24.614Z,47.21
2022-09-21T12:05:18.028Z,45.66
2022-09-21T12:07:56.324Z,46.33
2022-09-21T12:10:32.876Z,47.01
2022-09-21T12:13:06.755Z,47.77
2022-09-21T12:15:51.917Z,48.26
2022-09-21T12:18:45.982Z,48.37
2022-09-21T12:21:16.917Z,48.88
2022-09-21T12:23:50.675Z,47.02
2022-09-21T12:26:20.829Z,47.18
2022-09-21T12:28:52.024Z,48.63
2022-09-21T12:31:53.985Z,48.92
2022-09-21T12:34:45.551Z,48.60
2022-09-21T12:37:18.133Z,47.67
2022-09-21T12:39:51.487Z,47.55
2022-09-21T12:42:25.162Z,47.46
2022-09-21T12:45:08.047Z,47.13
2022-09-21T12:47:41.600Z,44.60
2022-09-21T12:50:35.839Z,45.80
2022-09-21T12:53:03.872Z,45.24
2022-09-21T12:55:36.995Z,44.26
2022-09-21T12:58:27.345Z,44.28
2022-09-21T13:01:18.210Z,46.50
2022-09-21T13:04:16.234Z,46.50
2022-09-21T13:07:02.418Z,45.67
2022-09-21T13:09:33.027Z,45.04
2022-09-21T13:12:08.737Z,47.48
2022-09-21T13:14:36.793Z,47.09
2022-09-21T13:17:05.087Z,46.70
2022-09-21T13:19:33.872Z,45.86
2022-09-21T13:22:14.408Z,46.08
2022-09-21T13:24:42.537Z,47.45
2022-09-21T13:27:10.117Z,47.23
2022-09-21T13:29:39.971Z,46.46
2022-09-21T13:32:10.700Z,47.34
2022-09-21T13:34:42.624Z,45.64
2022-09-21T13:37:16.811Z,46.29
2022-09-21T13:40:04.136Z,46.29
2022-09-21T13:42:34.739Z,46.16
2022-09-21T13:45:13.620Z,46.87
2022-09-21T13:47:49.240Z,46.49
2022-09-21T13:50:41.517Z,46.37
2022-09-21T13:53:25.661Z,46.05
2022-09-21T13:56:01.473Z,47.48
2022-09-21T13:58:37.574Z,47.90
2022-09-21T14:01:09.934Z,47.94
2022-09-21T14:03:58.329Z,47.32
2022-09-21T14:06:35.710Z,48.00
2022-09-21T14:09:05.887Z,48.46
2022-09-21T14:11:37.680Z,47.96
2022-09-21T14:14:09.470Z,47.54
2022-09-21T14:16:39.917Z,45.48
2022-09-21T14:19:19.839Z,45.75
2022-09-21T14:22:08.390Z,47.04
2022-09-21T14:24:41.473Z,47.14
2022-09-21T14:27:33.316Z,47.89
2022-09-21T14:30:20.773Z,46.77
2022-09-21T14:33:12.126Z,47.52
2022-09-21T14:35:41.969Z,47.90
2022-09-21T14:38:18.417Z,47.43
2022-09-21T14:40:51.411Z,47.48
2022-09-21T14:43:35.253Z,47.01
2022-09-21T14:46:30.186Z,47.47
2022-09-21T14:49:00.221Z,47.94
2022-09-21T14:51:55.688Z,48.10
2022-09-21T14:54:57.138Z,47.66
2022-09-21T14:57:58.794Z,48.17
2022-09-21T15:00:48.640Z,48.36
2022-09-21T15:03:23.963Z,47.27
2022-09-21T15:06:27.812Z,47.67
2022-09-21T15:09:42.656Z,46.71
2022-09-21T15:12:16.729Z,47.56
2022-09-21T15:14:47.168Z,46.10
2022-09-21T15:17:29.829Z,45.51
2022-09-21T15:20:03.602Z,45.33
2022-09-21T15:22:31.957Z,45.92
2022-09-21T15:25:04.004Z,45.41
2022-09-21T15:27:33.095Z,45.77
2022-09-21T15:30:05.523Z,45.33
2022-09-21T15:32:40.534Z,44.93
2022-09-21T15:35:19.973Z,45.16
2022-09-21T15:37:47.460Z,45.94
2022-09-21T15:40:20.690Z,45.50
2022-09-21T15:43:19.570Z,47.06
2022-09-21T15:46:06.382Z,46.84
2022-09-21T15:48:35.298Z,47.06
2022-09-21T15:51:14.546Z,46.36
2022-09-21T15:53:51.082Z,47.83
2022-09-21T15:56:23.500Z,48.98
2022-09-21T15:58:51.046Z,49.56
2022-09-21T16:01:23.300Z,48.86
2022-09-21T16:04:06.059Z,48.67
2022-09-21T16:06:38.409Z,48.30
2022-09-21T16:09:24.336Z,48.61
2022-09-21T16:11:55.310Z,47.25
2022-09-21T16:14:41.792Z,47.63
2022-09-21T16:17:09.163Z,48.62
2022-09-21T16:19:53.853Z,48.75
2022-09-21T16:22:44.257Z,49.17
2022-09-21T16:25:25.308Z,49.81
2022-09-21T16:27:55.484Z,49.70
2022-09-21T16:30:42.914Z,50.41
2022-09-21T16:33:35.536Z,50.21
2022-09-21T16:36:04.719Z,50.78
2022-09-21T16:38:33.630Z,50.77
2022-09-21T16:41:01.957Z,51.42
2022-09-21T16:43:29.893Z,51.38
2022-09-21T16:45:57.617Z,51.28
2022-09-21T16:48:24.978Z,52.04
2022-09-21T16:50:54.230Z,52.67
2022-09-21T16:53:23.544Z,52.62
2022-09-21T16:55:53.670Z,53.04
2022-09-21T16:58:21.670Z,52.46
2022-09-21T17:01:00.799Z,52.44
2022-09-21T17:03:31.576Z,53.19
2022-09-21T17:05:58.986Z,51.07
2022-09-21T17:08:29.922Z,53.63
2022-09-21T17:10:58.005Z,54.88
2022-09-21T17:13:26.745Z,53.34
2022-09-21T17:15:54.649Z,55.37
2022-09-21T17:18:22.331Z,55.58
2022-09-21T17:20:49.718Z,54.68
2022-09-21T17:23:17.081Z,55.49
2022-09-21T17:25:45.673Z,55.91
2022-09-21T17:28:15.353Z,55.92
2022-09-21T17:30:42.893Z,55.29
2022-09-21T17:33:10.744Z,54.89
2022-09-21T17:35:41.864Z,53.58
2022-09-21T17:38:14.177Z,54.45
2022-09-21T17:40:43.084Z,54.23
2022-09-21T17:43:13.372Z,56.69
2022-09-21T17:45:58.926Z,55.62
2022-09-21T17:48:30.597Z,56.55
2022-09-21T17:51:00.865Z,56.16
2022-09-21T17:53:34.436Z,56.92
2022-09-21T17:56:13.242Z,58.10
2022-09-21T17:58:48.681Z,58.35
2022-09-21T18:01:26.811Z,57.75
2022-09-21T18:03:54.659Z,58.30
2022-09-21T18:06:23.414Z,56.39
2022-09-21T18:08:50.972Z,56.55
2022-09-21T18:11:30.281Z,57.50
2022-09-21T18:14:17.298Z,57.89
2022-09-21T18:17:12.736Z,59.45
2022-09-21T18:20:02.511Z,59.81
2022-09-21T18:22:48.390Z,61.19
2022-09-21T18:25:21.374Z,60.16
2022-09-21T18:27:50.518Z,59.74
2022-09-21T18:30:18.842Z,59.32
2022-09-21T18:32:58.458Z,59.68
2022-09-21T18:35:38.738Z,60.18
2022-09-21T18:38:17.397Z,60.41
2022-09-21T18:40:57.016Z,60.43
2022-09-21T18:43:29.697Z,59.86
2022-09-21T18:46:14.823Z,61.09
2022-09-21T18:48:54.358Z,60.85
2022-09-21T18:51:34.637Z,60.61
2022-09-21T18:54:02.479Z,60.30
2022-09-21T18:56:35.197Z,61.64
2022-09-21T18:59:03.401Z,62.12
2022-09-21T19:01:33.951Z,63.17
2022-09-21T19:04:01.913Z,60.93
2022-09-21T19:06:40.355Z,61.37
2022-09-21T19:09:25.122Z,60.49
2022-09-21T19:12:14.400Z,62.64
2022-09-21T19:14:57.415Z,60.56
2022-09-21T19:17:47.634Z,60.77
2022-09-21T19:20:33.499Z,60.17
2022-09-21T19:23:31.049Z,61.65
2022-09-21T19:26:29.965Z,61.57
2022-09-21T19:29:12.900Z,60.23
2022-09-21T19:31:41.949Z,59.92
2022-09-21T19:34:15.040Z,59.30
2022-09-21T19:36:44.310Z,61.24
2022-09-21T19:39:13.058Z,62.67
2022-09-21T19:41:47.804Z,61.15
2022-09-21T19:44:28.742Z,62.40
2022-09-21T19:47:06.746Z,63.00
2022-09-21T19:49:46.243Z,61.63
2022-09-21T19:52:16.590Z,61.24
2022-09-21T19:55:03.143Z,62.12
2022-09-21T19:57:49.206Z,62.75
2022-09-21T20:00:17.662Z,61.41
2022-09-21T20:03:09.037Z,61.56
2022-09-21T20:05:55.884Z,62.91
2022-09-21T20:08:48.907Z,61.70
2022-09-21T20:11:45.801Z,62.44
2022-09-21T20:14:32.928Z,63.33
2022-09-21T20:17:00.877Z,62.75
2022-09-21T20:19:34.550Z,62.86
2022-09-21T20:22:04.769Z,64.27
2022-09-21T20:24:49.291Z,63.38
2022-09-21T20:27:20.888Z,62.94
2022-09-21T20:29:48.505Z,63.68
2022-09-21T20:32:15.945Z,64.61
2022-09-21T20:34:43.565Z,66.44
2022-09-21T20:37:14.248Z,64.69
2022-09-21T20:39:42.280Z,67.70
2022-09-21T20:42:19.282Z,67.84
2022-09-21T20:44:46.880Z,67.08
2022-09-21T20:47:14.248Z,69.58
2022-09-21T20:49:41.589Z,70.31
2022-09-21T20:52:11.207Z,70.27
2022-09-21T20:54:38.581Z,71.53
2022-09-21T20:57:05.962Z,70.21
2022-09-21T20:59:33.560Z,70.17
2022-09-21T21:02:01.010Z,69.84
2022-09-21T21:04:28.995Z,69.74
2022-09-21T21:06:57.021Z,69.65
2022-09-21T21:09:25.319Z,69.27
2022-09-21T21:11:52.660Z,69.17
2022-09-21T21:14:20.558Z,69.25
2022-09-21T21:16:48.156Z,68.67
2022-09-21T21:19:16.197Z,69.09
2022-09-21T21:21:44.444Z,67.53
2022-09-21T21:24:30.664Z,70.55
2022-09-21T21:27:02.365Z,68.80
2022-09-21T21:29:31.078Z,69.20
2022-09-21T21:31:59.556Z,68.69
2022-09-21T21:34:27.096Z,69.66
2022-09-21T21:36:54.445Z,68.16
2022-09-21T21:39:22.053Z,68.15
2022-09-21T21:41:49.385Z,69.29
2022-09-21T21:44:16.787Z,68.97
2022-09-21T21:46:44.471Z,67.76
2022-09-21T21:49:11.801Z,69.79
2022-09-21T21:51:39.514Z,69.29
2022-09-21T21:54:07.348Z,67.44
2022-09-21T21:56:34.766Z,67.01
2022-09-21T21:59:02.074Z,69.06
2022-09-21T22:01:29.903Z,66.62
2022-09-21T22:03:59.493Z,65.40
2022-09-21T22:06:27.696Z,65.06
2022-09-21T22:08:55.416Z,64.63
2022-09-21T22:11:25.069Z,66.09
2022-09-21T22:13:53.840Z,68.43
2022-09-21T22:16:22.509Z,67.64
2022-09-21T22:18:50.570Z,66.62
2022-09-21T22:21:26.186Z,68.72
2022-09-21T22:23:55.043Z,71.15
2022-09-21T22:26:22.593Z,70.80
2022-09-21T22:28:58.516Z,69.41
2022-09-21T22:31:28.496Z,68.36
2022-09-21T22:33:55.906Z,69.39
2022-09-21T22:36:24.005Z,69.45
2022-09-21T22:38:52.402Z,67.63
2022-09-21T22:41:22.088Z,68.62
2022-09-21T22:43:51.042Z,67.94
2022-09-21T22:46:18.827Z,69.61
2022-09-21T22:48:46.310Z,71.47
2022-09-21T22:51:14.486Z,70.44
2022-09-21T22:53:42.217Z,71.55
2022-09-21T22:56:18.965Z,68.84
2022-09-21T22:58:47.931Z,69.09
2022-09-21T23:01:20.272Z,68.67
2022-09-21T23:03:48.785Z,70.74
2022-09-21T23:06:17.309Z,69.30
2022-09-21T23:08:48.965Z,70.87
2022-09-21T23:11:27.456Z,72.27
2022-09-21T23:13:55.510Z,71.58
2022-09-21T23:16:23.535Z,71.29
2022-09-21T23:18:51.043Z,72.34
2022-09-21T23:21:20.239Z,71.56
2022-09-21T23:23:47.870Z,73.74
2022-09-21T23:26:20.013Z,73.23
2022-09-21T23:28:56.427Z,74.93
2022-09-21T23:31:24.024Z,74.96
2022-09-21T23:33:52.340Z,73.65
2022-09-21T23:36:21.833Z,71.92
2022-09-21T23:38:49.321Z,76.19
2022-09-21T23:41:18.915Z,75.88
2022-09-21T23:43:46.388Z,76.14
2022-09-21T23:46:15.326Z,73.74
2022-09-21T23:48:43.066Z,73.35
2022-09-21T23:51:10.754Z,73.18
2022-09-21T23:53:38.149Z,74.97
2022-09-21T23:56:06.224Z,76.10
2022-09-21T23:58:33.695Z,74.85
